createdAt,value
2023-02-14T00:02:17.058Z,17.10
2023-02-14T00:04:47.020Z,17.90
2023-02-14T00:07:16.293Z,19.93
2023-02-14T00:09:44.276Z,19.17
2023-02-14T00:12:14.550Z,18.00
2023-02-14T00:15:05.303Z,22.00
2023-02-14T00:17:36.182Z,21.07
2023-02-14T00:20:06.093Z,19.90
2023-02-14T00:22:36.539Z,16.53
2023-02-14T00:25:08.470Z,16.33
2023-02-14T00:27:36.374Z,20.57
2023-02-14T00:30:08.208Z,14.10
2023-02-14T00:32:38.009Z,21.00
2023-02-14T00:35:06.379Z,19.77
2023-02-14T00:37:34.346Z,20.00
2023-02-14T00:40:03.827Z,21.77
2023-02-14T00:42:31.716Z,21.57
2023-02-14T00:45:00.810Z,16.70
2023-02-14T00:47:29.190Z,17.60
2023-02-14T00:50:02.850Z,15.83
2023-02-14T00:52:33.757Z,16.70
2023-02-14T00:55:03.202Z,24.00
2023-02-14T00:57:33.347Z,19.13
2023-02-14T01:00:04.497Z,19.80
2023-02-14T01:02:34.412Z,20.67
2023-02-14T01:05:02.471Z,19.63
2023-02-14T01:07:35.729Z,18.13
2023-02-14T01:10:05.182Z,19.27
2023-02-14T01:12:34.335Z,16.90
2023-02-14T01:15:02.227Z,16.57
2023-02-14T01:17:30.053Z,26.07
2023-02-14T01:20:03.713Z,20.60
2023-02-14T01:22:33.650Z,20.50
2023-02-14T01:25:03.428Z,20.70
2023-02-14T01:27:48.726Z,18.37
2023-02-14T01:30:17.244Z,18.50
2023-02-14T01:32:50.899Z,19.90
2023-02-14T01:35:18.881Z,16.40
2023-02-14T01:37:47.809Z,18.27
2023-02-14T01:40:17.773Z,18.33
2023-02-14T01:42:58.232Z,22.70
2023-02-14T01:45:28.232Z,22.00
2023-02-14T01:47:58.705Z,18.63
2023-02-14T01:50:31.574Z,21.57
2023-02-14T01:53:02.515Z,21.47
2023-02-14T01:55:38.787Z,23.83
2023-02-14T01:58:10.866Z,20.47
2023-02-14T02:01:02.443Z,19.33
2023-02-14T02:03:37.279Z,25.13
2023-02-14T02:06:12.087Z,21.70
2023-02-14T02:08:46.943Z,25.23
2023-02-14T02:11:18.131Z,26.83
2023-02-14T02:13:51.391Z,24.97
2023-02-14T02:16:31.187Z,22.77
2023-02-14T02:19:15.131Z,23.90
2023-02-14T02:22:05.779Z,26.50
2023-02-14T02:24:37.588Z,21.47
2023-02-14T02:27:28.609Z,22.60
2023-02-14T02:30:29.762Z,24.03
2023-02-14T02:33:21.768Z,23.27
2023-02-14T02:36:30.632Z,22.47
2023-02-14T02:39:14.893Z,24.67
2023-02-14T02:41:57.963Z,30.50
2023-02-14T02:44:36.646Z,26.20
2023-02-14T02:47:08.737Z,25.67
2023-02-14T02:50:02.183Z,19.83
2023-02-14T02:52:59.001Z,21.40
2023-02-14T02:55:53.303Z,21.53
2023-02-14T02:58:23.730Z,22.77
2023-02-14T03:00:52.825Z,23.80
2023-02-14T03:03:39.116Z,29.37
2023-02-14T03:06:07.577Z,29.30
2023-02-14T03:08:40.286Z,26.70
2023-02-14T03:11:09.487Z,22.30
2023-02-14T03:13:58.373Z,20.60
2023-02-14T03:16:35.166Z,23.23
2023-02-14T03:20:00.648Z,20.73
2023-02-14T03:22:55.407Z,25.00
2023-02-14T03:25:50.178Z,21.73
2023-02-14T03:28:22.193Z,18.37
2023-02-14T03:30:55.962Z,14.30
2023-02-14T03:34:23.490Z,20.40
2023-02-14T03:37:00.959Z,22.73
2023-02-14T03:39:33.624Z,27.47
2023-02-14T03:42:06.387Z,24.70
2023-02-14T03:44:37.505Z,21.27
2023-02-14T03:47:10.036Z,19.87
2023-02-14T03:49:55.545Z,22.43
2023-02-14T03:52:24.628Z,16.70
2023-02-14T03:54:56.665Z,17.73
2023-02-14T03:57:28.170Z,23.90
2023-02-14T03:59:57.844Z,18.93
2023-02-14T04:02:31.574Z,25.30
2023-02-14T04:05:00.430Z,18.30
2023-02-14T04:07:28.693Z,21.30
2023-02-14T04:10:05.989Z,17.30
2023-02-14T04:12:38.181Z,24.03
2023-02-14T04:15:08.798Z,25.70
2023-02-14T04:17:56.815Z,20.10
2023-02-14T04:20:27.970Z,24.60
2023-02-14T04:22:56.047Z,20.30
2023-02-14T04:25:25.142Z,21.60
2023-02-14T04:27:56.100Z,26.13
2023-02-14T04:30:25.493Z,21.77
2023-02-14T04:32:56.897Z,20.63
2023-02-14T04:35:24.762Z,16.70
2023-02-14T04:37:52.544Z,16.70
2023-02-14T04:40:23.543Z,21.30
2023-02-14T04:42:51.457Z,24.73
2023-02-14T04:45:19.527Z,21.97
2023-02-14T04:47:49.294Z,24.00
2023-02-14T04:50:22.246Z,30.13
2023-02-14T04:52:50.521Z,28.80
2023-02-14T04:55:18.366Z,24.00
2023-02-14T04:57:46.187Z,31.47
2023-02-14T05:00:15.172Z,22.23
2023-02-14T05:02:50.782Z,31.07
2023-02-14T05:05:20.890Z,22.43
2023-02-14T05:07:49.056Z,29.70
2023-02-14T05:10:22.113Z,23.07
2023-02-14T05:12:55.856Z,25.20
2023-02-14T05:15:26.486Z,24.23
2023-02-14T05:18:03.035Z,25.03
2023-02-14T05:20:32.123Z,28.27
2023-02-14T05:23:03.616Z,27.87
2023-02-14T05:25:31.825Z,26.53
2023-02-14T05:27:59.663Z,23.07
2023-02-14T05:30:30.202Z,23.53
2023-02-14T05:32:59.775Z,25.97
2023-02-14T05:35:27.887Z,25.40
2023-02-14T05:37:56.024Z,22.10
2023-02-14T05:40:27.333Z,24.83
2023-02-14T05:42:59.120Z,27.57
2023-02-14T05:45:27.303Z,25.30
2023-02-14T05:47:55.110Z,25.83
2023-02-14T05:50:24.275Z,25.97
2023-02-14T05:52:55.717Z,22.27
2023-02-14T05:55:26.970Z,22.67
2023-02-14T05:57:58.473Z,24.43
2023-02-14T06:00:29.446Z,18.63
2023-02-14T06:02:59.475Z,30.97
2023-02-14T06:05:29.576Z,30.73
2023-02-14T06:07:57.415Z,31.43
2023-02-14T06:10:29.644Z,24.83
2023-02-14T06:12:57.665Z,19.73
2023-02-14T06:15:25.870Z,21.30
2023-02-14T06:17:56.566Z,23.53
2023-02-14T06:20:27.398Z,20.33
2023-02-14T06:22:56.627Z,22.37
2023-02-14T06:25:25.566Z,21.90
2023-02-14T06:27:59.872Z,24.23
2023-02-14T06:30:29.078Z,23.63
2023-02-14T06:32:58.031Z,22.47
2023-02-14T06:35:26.015Z,42.27
2023-02-14T06:37:53.967Z,37.37
2023-02-14T06:40:24.123Z,29.40
2023-02-14T06:42:52.117Z,21.63
2023-02-14T06:45:20.338Z,25.30
2023-02-14T06:47:52.593Z,31.40
2023-02-14T06:50:22.222Z,27.33
2023-02-14T06:52:51.382Z,30.73
2023-02-14T06:55:21.354Z,28.87
2023-02-14T06:57:50.505Z,39.47
2023-02-14T07:00:21.939Z,27.10
2023-02-14T07:02:54.749Z,30.73
2023-02-14T07:05:22.886Z,24.27
2023-02-14T07:07:50.836Z,23.87
2023-02-14T07:10:18.928Z,27.23
2023-02-14T07:12:58.449Z,24.83
2023-02-14T07:15:26.367Z,33.93
2023-02-14T07:17:54.191Z,24.90
2023-02-14T07:20:22.440Z,20.70
2023-02-14T07:22:50.382Z,22.37
2023-02-14T07:25:18.453Z,18.80
2023-02-14T07:27:46.480Z,24.30
2023-02-14T07:30:16.484Z,23.00
2023-02-14T07:32:44.589Z,22.77
2023-02-14T07:35:15.553Z,20.87
2023-02-14T07:37:44.648Z,21.23
2023-02-14T07:40:15.549Z,19.90
2023-02-14T07:42:43.740Z,21.97
2023-02-14T07:45:27.382Z,23.33
2023-02-14T07:47:59.033Z,21.97
2023-02-14T07:50:27.964Z,19.97
2023-02-14T07:52:56.106Z,22.90
2023-02-14T07:55:36.446Z,23.10
2023-02-14T07:58:04.621Z,26.17
2023-02-14T08:00:35.393Z,28.73
2023-02-14T08:03:04.773Z,20.00
2023-02-14T08:05:33.796Z,22.77
2023-02-14T08:08:04.188Z,17.47
2023-02-14T08:10:32.298Z,19.50
2023-02-14T08:13:05.730Z,26.33
2023-02-14T08:15:52.730Z,18.97
2023-02-14T08:18:26.595Z,28.90
2023-02-14T08:20:54.671Z,25.33
2023-02-14T08:23:23.122Z,21.20
2023-02-14T08:25:52.372Z,24.50
2023-02-14T08:28:23.319Z,20.07
2023-02-14T08:30:51.771Z,23.50
2023-02-14T08:33:22.903Z,21.50
2023-02-14T08:35:57.186Z,21.97
2023-02-14T08:38:31.938Z,25.33
2023-02-14T08:41:08.608Z,23.10
2023-02-14T08:43:37.057Z,24.73
2023-02-14T08:46:10.968Z,30.70
2023-02-14T08:48:41.075Z,26.87
2023-02-14T08:51:15.039Z,21.53
2023-02-14T08:53:43.452Z,21.93
2023-02-14T08:56:15.355Z,26.30
2023-02-14T08:58:43.354Z,25.43
2023-02-14T09:01:11.866Z,22.50
2023-02-14T09:03:39.991Z,21.10
2023-02-14T09:06:11.439Z,20.97
2023-02-14T09:08:41.133Z,32.90
2023-02-14T09:11:09.776Z,24.97
2023-02-14T09:13:37.911Z,23.70
2023-02-14T09:16:06.397Z,24.17
2023-02-14T09:18:35.112Z,24.53
2023-02-14T09:21:11.064Z,25.30
2023-02-14T09:23:41.882Z,27.27
2023-02-14T09:26:13.687Z,18.43
2023-02-14T09:28:42.114Z,29.03
2023-02-14T09:31:11.226Z,25.00
2023-02-14T09:33:45.932Z,26.00
2023-02-14T09:36:15.520Z,21.17
2023-02-14T09:38:43.635Z,27.17
2023-02-14T09:41:29.595Z,27.73
2023-02-14T09:44:00.641Z,23.20
2023-02-14T09:46:35.851Z,27.20
2023-02-14T09:49:04.461Z,21.57
2023-02-14T09:51:34.107Z,21.53
2023-02-14T09:54:11.072Z,21.87
2023-02-14T09:56:51.382Z,21.23
2023-02-14T09:59:24.816Z,24.30
2023-02-14T10:01:55.576Z,21.70
2023-02-14T10:04:32.036Z,25.27
2023-02-14T10:07:10.067Z,27.17
2023-02-14T10:10:03.939Z,20.57
2023-02-14T10:12:39.032Z,22.60
2023-02-14T10:15:14.186Z,20.93
2023-02-14T10:17:48.899Z,24.10
2023-02-14T10:20:21.936Z,21.30
2023-02-14T10:22:58.694Z,17.70
2023-02-14T10:25:30.635Z,20.80
2023-02-14T10:28:03.922Z,23.43
2023-02-14T10:30:38.906Z,22.90
2023-02-14T10:33:14.269Z,24.70
2023-02-14T10:35:47.662Z,27.30
2023-02-14T10:38:34.836Z,26.50
2023-02-14T10:41:28.278Z,26.57
2023-02-14T10:44:03.616Z,26.30
2023-02-14T10:46:38.376Z,22.83
2023-02-14T10:49:28.692Z,21.40
2023-02-14T10:52:00.397Z,23.87
2023-02-14T10:54:36.740Z,24.70
2023-02-14T10:57:07.083Z,34.90
2023-02-14T10:59:41.718Z,28.93
2023-02-14T11:02:13.685Z,26.50
2023-02-14T11:04:47.461Z,22.63
2023-02-14T11:07:20.098Z,27.93
2023-02-14T11:10:18.118Z,32.00
2023-02-14T11:12:46.431Z,25.60
2023-02-14T11:15:26.459Z,22.10
2023-02-14T11:18:10.758Z,26.27
2023-02-14T11:20:39.310Z,21.40
2023-02-14T11:23:22.539Z,21.10
2023-02-14T11:25:55.891Z,26.50
2023-02-14T11:28:24.344Z,33.90
2023-02-14T11:30:55.953Z,26.80
2023-02-14T11:33:34.002Z,28.17
2023-02-14T11:36:03.950Z,25.30
2023-02-14T11:38:36.724Z,26.90
2023-02-14T11:41:08.886Z,28.50
2023-02-14T11:43:40.001Z,33.00
2023-02-14T11:46:18.029Z,28.30
2023-02-14T11:48:57.746Z,33.13
2023-02-14T11:51:31.068Z,27.40
2023-02-14T11:54:05.088Z,26.70
2023-02-14T11:56:50.148Z,34.47
2023-02-14T11:59:27.665Z,27.77
2023-02-14T12:01:59.568Z,33.30
2023-02-14T12:04:38.089Z,28.67
2023-02-14T12:07:18.584Z,28.87
2023-02-14T12:09:47.608Z,28.87
2023-02-14T12:12:23.317Z,30.23
2023-02-14T12:14:51.286Z,28.80
2023-02-14T12:17:28.913Z,30.47
2023-02-14T12:20:00.889Z,27.37
2023-02-14T12:22:32.062Z,28.17
2023-02-14T12:25:04.799Z,35.53
2023-02-14T12:27:44.261Z,30.37
2023-02-14T12:30:15.283Z,29.83
2023-02-14T12:32:50.936Z,27.13
2023-02-14T12:35:20.973Z,27.97
2023-02-14T12:38:04.642Z,30.50
2023-02-14T12:40:38.463Z,30.70
2023-02-14T12:43:36.196Z,29.67
2023-02-14T12:46:35.339Z,31.87
2023-02-14T12:49:14.126Z,27.87
2023-02-14T12:51:48.272Z,39.70
2023-02-14T12:54:33.758Z,35.97
2023-02-14T12:57:07.556Z,27.73
2023-02-14T12:59:43.958Z,30.70
2023-02-14T13:02:52.298Z,35.03
2023-02-14T13:05:25.645Z,26.03
2023-02-14T13:08:13.524Z,29.60
2023-02-14T13:10:53.545Z,26.77
2023-02-14T13:13:29.878Z,32.27
2023-02-14T13:16:08.281Z,27.73
2023-02-14T13:18:54.523Z,27.87
2023-02-14T13:21:25.760Z,34.00
2023-02-14T13:23:57.297Z,33.10
2023-02-14T13:26:29.962Z,36.93
2023-02-14T13:29:04.373Z,36.10
2023-02-14T13:31:36.513Z,28.03
2023-02-14T13:34:08.456Z,23.40
2023-02-14T13:36:38.555Z,30.90
2023-02-14T13:39:06.792Z,27.63
2023-02-14T13:41:43.926Z,29.97
2023-02-14T13:44:44.822Z,28.63
2023-02-14T13:47:21.027Z,30.80
2023-02-14T13:49:58.637Z,32.73
2023-02-14T13:52:42.240Z,29.27
2023-02-14T13:55:10.928Z,26.00
2023-02-14T13:57:41.281Z,26.47
2023-02-14T14:00:42.112Z,28.23
2023-02-14T14:03:15.958Z,27.20
2023-02-14T14:05:59.279Z,26.37
2023-02-14T14:08:54.447Z,31.07
2023-02-14T14:12:01.325Z,26.00
2023-02-14T14:14:36.317Z,28.33
2023-02-14T14:17:19.410Z,28.50
2023-02-14T14:19:51.398Z,29.07
2023-02-14T14:22:21.483Z,29.93
2023-02-14T14:25:05.251Z,27.33
2023-02-14T14:27:36.257Z,30.10
2023-02-14T14:30:08.852Z,36.57
2023-02-14T14:32:38.218Z,27.27
2023-02-14T14:35:22.356Z,27.83
2023-02-14T14:37:52.721Z,30.30
2023-02-14T14:40:30.086Z,27.83
2023-02-14T14:43:06.903Z,27.07
2023-02-14T14:45:39.048Z,28.27
2023-02-14T14:48:10.678Z,30.00
2023-02-14T14:50:40.905Z,32.73
2023-02-14T14:53:15.446Z,29.20
2023-02-14T14:55:46.764Z,29.70
2023-02-14T14:58:35.456Z,28.20
2023-02-14T15:01:05.503Z,27.43
2023-02-14T15:03:35.649Z,34.00
2023-02-14T15:06:23.530Z,27.27
2023-02-14T15:08:52.004Z,29.47
2023-02-14T15:11:35.560Z,35.73
2023-02-14T15:14:05.735Z,31.97
2023-02-14T15:16:41.677Z,27.03
2023-02-14T15:19:13.075Z,31.97
2023-02-14T15:21:48.513Z,25.37
2023-02-14T15:24:18.702Z,24.10
2023-02-14T15:26:53.395Z,31.90
2023-02-14T15:29:26.361Z,29.20
2023-02-14T15:31:54.949Z,28.80
2023-02-14T15:34:29.125Z,28.70
2023-02-14T15:37:06.597Z,26.63
2023-02-14T15:39:41.682Z,26.93
2023-02-14T15:42:25.986Z,31.50
2023-02-14T15:45:15.173Z,31.80
2023-02-14T15:47:44.290Z,32.10
2023-02-14T15:50:15.974Z,29.60
2023-02-14T15:52:45.618Z,36.73
2023-02-14T15:55:16.836Z,29.90
2023-02-14T15:57:50.204Z,32.90
2023-02-14T16:00:19.594Z,28.33
2023-02-14T16:02:52.068Z,32.27
2023-02-14T16:05:21.852Z,29.60
2023-02-14T16:08:03.684Z,26.77
2023-02-14T16:10:33.800Z,31.00
2023-02-14T16:13:04.791Z,30.03
2023-02-14T16:15:35.274Z,33.60
2023-02-14T16:18:08.133Z,30.50
2023-02-14T16:20:46.935Z,31.57
2023-02-14T16:23:27.398Z,26.03
2023-02-14T16:25:58.375Z,32.17
2023-02-14T16:28:30.326Z,31.17
2023-02-14T16:31:05.926Z,29.50
2023-02-14T16:33:35.847Z,32.33
2023-02-14T16:36:09.475Z,28.80
2023-02-14T16:38:54.077Z,26.90
2023-02-14T16:41:24.262Z,30.13
2023-02-14T16:43:53.413Z,29.67
2023-02-14T16:46:26.621Z,33.53
2023-02-14T16:48:57.367Z,31.47
2023-02-14T16:51:27.418Z,27.00
2023-02-14T16:53:58.622Z,25.57
2023-02-14T16:56:29.759Z,30.90
2023-02-14T16:59:00.650Z,29.10
2023-02-14T17:01:32.796Z,29.67
2023-02-14T17:04:01.207Z,31.43
2023-02-14T17:06:30.715Z,32.33
2023-02-14T17:09:07.150Z,33.53
2023-02-14T17:11:41.396Z,28.03
2023-02-14T17:14:14.113Z,29.70
2023-02-14T17:16:42.298Z,26.93
2023-02-14T17:19:10.462Z,29.10
2023-02-14T17:21:47.927Z,28.47
2023-02-14T17:24:17.300Z,28.27
2023-02-14T17:26:46.745Z,36.83
2023-02-14T17:29:16.917Z,35.97
2023-02-14T17:31:47.684Z,31.93
2023-02-14T17:34:15.653Z,28.97
2023-02-14T17:36:52.006Z,27.60
2023-02-14T17:39:24.000Z,27.83
2023-02-14T17:41:56.644Z,32.30
2023-02-14T17:44:24.606Z,29.13
2023-02-14T17:46:54.604Z,26.57
2023-02-14T17:49:23.796Z,26.53
2023-02-14T17:51:51.923Z,37.23
2023-02-14T17:54:19.870Z,35.70
2023-02-14T17:56:49.109Z,30.33
2023-02-14T17:59:17.061Z,32.70
2023-02-14T18:01:45.076Z,32.13
2023-02-14T18:04:12.910Z,32.60
2023-02-14T18:06:42.533Z,30.60
2023-02-14T18:09:14.170Z,27.07
2023-02-14T18:11:46.338Z,31.70
2023-02-14T18:14:15.642Z,26.27
2023-02-14T18:16:43.922Z,29.07
2023-02-14T18:19:17.627Z,27.63
2023-02-14T18:21:46.373Z,31.53
2023-02-14T18:24:15.560Z,36.27
2023-02-14T18:26:44.507Z,33.10
2023-02-14T18:29:13.640Z,28.97
2023-02-14T18:31:45.543Z,24.23
2023-02-14T18:34:20.681Z,28.40
2023-02-14T18:36:49.341Z,26.87
2023-02-14T18:39:21.883Z,27.90
2023-02-14T18:41:52.338Z,37.27
2023-02-14T18:44:23.714Z,26.77
2023-02-14T18:46:54.977Z,30.73
2023-02-14T18:49:25.855Z,31.80
2023-02-14T18:51:54.929Z,29.50
2023-02-14T18:57:09.395Z,36.17
2023-02-14T18:59:38.300Z,29.43
2023-02-14T19:02:07.588Z,33.83
2023-02-14T19:04:38.391Z,30.90
2023-02-14T19:07:09.379Z,27.80
2023-02-14T19:09:39.863Z,26.10
2023-02-14T19:12:07.858Z,27.73
2023-02-14T19:14:36.101Z,28.57
2023-02-14T19:17:13.197Z,27.63
2023-02-14T19:19:41.196Z,27.40
2023-02-14T19:22:09.214Z,54.43
2023-02-14T19:24:44.184Z,38.10
2023-02-14T19:27:13.370Z,36.40
2023-02-14T19:29:45.136Z,23.70
2023-02-14T19:32:14.520Z,33.60
2023-02-14T19:34:42.591Z,29.27
2023-02-14T19:37:10.424Z,28.97
2023-02-14T19:39:38.343Z,26.17
2023-02-14T19:42:06.497Z,27.60
2023-02-14T19:44:36.798Z,24.33
2023-02-14T19:47:15.692Z,23.37
2023-02-14T19:49:55.073Z,21.53
2023-02-14T19:52:26.889Z,24.70
2023-02-14T19:54:55.923Z,24.70
2023-02-14T19:57:29.348Z,27.40
2023-02-14T19:59:58.769Z,24.40
2023-02-14T20:02:26.692Z,29.27
2023-02-14T20:04:59.265Z,34.00
2023-02-14T20:07:35.246Z,31.77
2023-02-14T20:10:03.397Z,28.20
2023-02-14T20:12:31.328Z,32.37
2023-02-14T20:15:05.649Z,37.87
2023-02-14T20:17:34.711Z,41.30
2023-02-14T20:20:06.218Z,45.33
2023-02-14T20:22:36.468Z,43.73
2023-02-14T20:25:05.652Z,39.30
2023-02-14T20:27:44.726Z,40.37
2023-02-14T20:30:14.793Z,39.57
2023-02-14T20:32:42.727Z,44.17
2023-02-14T20:35:13.283Z,60.67
2023-02-14T20:37:41.436Z,59.97
2023-02-14T20:40:11.820Z,45.47
2023-02-14T20:42:43.558Z,39.80
2023-02-14T20:45:12.299Z,39.90
2023-02-14T20:47:40.141Z,31.03
2023-02-14T20:50:15.968Z,39.93
2023-02-14T20:52:43.825Z,37.73
2023-02-14T20:55:11.686Z,36.80
2023-02-14T20:57:40.484Z,37.27
2023-02-14T21:00:11.415Z,28.67
2023-02-14T21:02:44.760Z,33.17
2023-02-14T21:05:18.432Z,35.80
2023-02-14T21:07:50.140Z,37.17
2023-02-14T21:10:20.391Z,28.57
2023-02-14T21:12:54.694Z,32.90
2023-02-14T21:15:22.737Z,28.90
2023-02-14T21:17:50.773Z,33.90
2023-02-14T21:20:31.137Z,30.90
2023-02-14T21:22:58.956Z,39.83
2023-02-14T21:25:28.458Z,28.90
2023-02-14T21:27:57.497Z,34.53
2023-02-14T21:30:30.894Z,34.77
2023-02-14T21:32:58.744Z,34.50
2023-02-14T21:35:31.478Z,37.47
2023-02-14T21:38:00.411Z,31.47
2023-02-14T21:40:29.515Z,37.83
2023-02-14T21:42:57.370Z,38.10
2023-02-14T21:45:42.564Z,35.90
2023-02-14T21:48:29.178Z,31.20
2023-02-14T21:51:06.120Z,30.33
2023-02-14T21:53:36.452Z,32.77
2023-02-14T21:56:10.529Z,38.23
2023-02-14T21:58:40.479Z,36.60
2023-02-14T22:01:09.390Z,39.10
2023-02-14T22:03:39.618Z,34.37
2023-02-14T22:06:11.526Z,37.47
2023-02-14T22:08:45.059Z,31.77
2023-02-14T22:11:14.710Z,28.10
2023-02-14T22:13:43.038Z,38.37
2023-02-14T22:16:15.267Z,29.07
2023-02-14T22:18:44.502Z,26.90
2023-02-14T22:21:24.555Z,34.37
2023-02-14T22:23:53.553Z,31.23
2023-02-14T22:26:25.766Z,39.83
2023-02-14T22:28:57.017Z,35.60
2023-02-14T22:31:28.025Z,37.83
2023-02-14T22:36:38.168Z,34.97
2023-02-14T22:41:54.391Z,38.80
2023-02-14T22:44:22.228Z,34.23
2023-02-14T22:46:50.431Z,29.03
2023-02-14T22:49:20.463Z,33.00
2023-02-14T22:51:49.631Z,29.73
2023-02-14T22:54:20.375Z,34.60
2023-02-14T22:56:57.360Z,35.20
2023-02-14T22:59:30.000Z,35.57
2023-02-14T23:02:01.356Z,30.93
2023-02-14T23:04:32.071Z,27.13
2023-02-14T23:07:15.453Z,28.63
2023-02-14T23:09:43.230Z,31.27
2023-02-14T23:12:27.984Z,26.43
2023-02-14T23:15:30.188Z,31.03
2023-02-14T23:18:15.420Z,32.27
2023-02-14T23:21:04.997Z,26.20
2023-02-14T23:23:38.789Z,33.60
2023-02-14T23:26:07.778Z,29.97
2023-02-14T23:28:36.969Z,32.30
2023-02-14T23:31:06.850Z,28.90
2023-02-14T23:33:34.665Z,27.43
2023-02-14T23:36:06.307Z,26.77
2023-02-14T23:38:36.479Z,36.43
2023-02-14T23:41:29.984Z,37.13
2023-02-14T23:43:57.749Z,30.77
2023-02-14T23:46:25.589Z,29.67
2023-02-14T23:48:53.371Z,38.00
2023-02-14T23:51:21.121Z,34.03
2023-02-14T23:53:53.201Z,31.00
2023-02-14T23:56:21.542Z,29.27
2023-02-14T23:58:49.333Z,36.80
